createdAt,value
2023-01-22T00:01:10.282Z,64.90
2023-01-22T00:03:37.585Z,65.00
2023-01-22T00:06:05.962Z,65.00
2023-01-22T00:08:33.959Z,65.10
2023-01-22T00:11:01.276Z,65.10
2023-01-22T00:13:28.976Z,65.10
2023-01-22T00:15:59.904Z,65.10
2023-01-22T00:18:27.082Z,65.90
2023-01-22T00:20:55.587Z,65.10
2023-01-22T00:23:23.291Z,65.20
2023-01-22T00:25:50.956Z,65.30
2023-01-22T00:28:17.985Z,65.30
2023-01-22T00:30:44.962Z,65.10
2023-01-22T00:33:11.914Z,65.10
2023-01-22T00:35:39.694Z,65.00
2023-01-22T00:38:07.013Z,65.00
2023-01-22T00:40:34.354Z,65.10
2023-01-22T00:43:01.316Z,65.20
2023-01-22T00:45:28.426Z,65.40
2023-01-22T00:47:55.299Z,65.40
2023-01-22T00:50:22.309Z,65.50
2023-01-22T00:52:49.289Z,65.40
2023-01-22T00:55:16.294Z,65.40
2023-01-22T00:57:43.233Z,65.30
2023-01-22T01:00:11.080Z,65.20
2023-01-22T01:02:57.981Z,65.30
2023-01-22T01:05:24.997Z,65.20
2023-01-22T01:07:51.992Z,65.10
2023-01-22T01:10:19.693Z,65.20
2023-01-22T01:12:47.009Z,65.20
2023-01-22T01:15:13.911Z,65.10
2023-01-22T01:17:40.915Z,65.10
2023-01-22T01:20:08.357Z,65.20
2023-01-22T01:22:35.622Z,65.20
2023-01-22T01:25:02.619Z,65.10
2023-01-22T01:27:31.748Z,65.00
2023-01-22T01:29:59.108Z,65.10
2023-01-22T01:32:26.160Z,64.90
2023-01-22T01:34:53.070Z,64.90
2023-01-22T01:37:20.019Z,64.90
2023-01-22T01:39:48.043Z,64.90
2023-01-22T01:42:15.064Z,65.00
2023-01-22T01:44:43.050Z,65.00
2023-01-22T01:47:30.315Z,65.00
2023-01-22T01:49:57.293Z,65.10
2023-01-22T01:52:24.408Z,65.00
2023-01-22T01:54:56.780Z,65.20
2023-01-22T01:57:29.576Z,65.10
2023-01-22T01:59:57.936Z,65.10
2023-01-22T02:02:25.065Z,65.20
2023-01-22T02:04:53.551Z,65.00
2023-01-22T02:07:21.027Z,65.00
2023-01-22T02:09:48.042Z,65.00
2023-01-22T02:12:15.226Z,65.00
2023-01-22T02:14:44.601Z,65.10
2023-01-22T02:17:15.136Z,65.20
2023-01-22T02:19:42.696Z,65.30
2023-01-22T02:22:30.192Z,65.10
2023-01-22T02:24:57.436Z,65.40
2023-01-22T02:27:24.620Z,65.30
2023-01-22T02:29:52.061Z,65.40
2023-01-22T02:32:19.317Z,65.60
2023-01-22T02:34:46.256Z,65.50
2023-01-22T02:37:13.219Z,65.60
2023-01-22T02:39:40.168Z,65.70
2023-01-22T02:42:07.813Z,65.70
2023-01-22T02:44:34.950Z,65.60
2023-01-22T02:47:01.952Z,65.80
2023-01-22T02:49:28.953Z,65.70
2023-01-22T02:51:55.864Z,65.70
2023-01-22T02:54:22.858Z,65.70
2023-01-22T02:56:49.914Z,65.70
2023-01-22T02:59:16.978Z,65.70
2023-01-22T03:01:43.861Z,65.60
2023-01-22T03:04:11.081Z,65.60
2023-01-22T03:06:40.874Z,65.70
2023-01-22T03:09:08.923Z,65.80
2023-01-22T03:11:37.654Z,66.50
2023-01-22T03:14:23.470Z,65.80
2023-01-22T03:17:08.782Z,65.90
2023-01-22T03:19:54.969Z,66.00
2023-01-22T03:22:22.076Z,65.90
2023-01-22T03:24:51.314Z,66.00
2023-01-22T03:27:23.150Z,66.00
2023-01-22T03:29:50.444Z,66.00
2023-01-22T03:32:17.973Z,65.90
2023-01-22T03:34:44.970Z,66.00
2023-01-22T03:37:12.981Z,66.00
2023-01-22T03:39:40.463Z,66.20
2023-01-22T03:42:07.986Z,66.20
2023-01-22T03:44:35.089Z,66.20
2023-01-22T03:47:02.098Z,66.20
2023-01-22T03:49:29.048Z,66.10
2023-01-22T03:51:57.410Z,66.00
2023-01-22T03:54:24.515Z,66.20
2023-01-22T03:56:51.442Z,66.20
2023-01-22T03:59:18.414Z,66.20
2023-01-22T04:01:45.343Z,66.20
2023-01-22T04:04:12.398Z,66.10
2023-01-22T04:06:39.381Z,66.20
2023-01-22T04:09:06.336Z,66.10
2023-01-22T04:11:33.338Z,66.10
2023-01-22T04:14:00.278Z,66.10
2023-01-22T04:16:27.370Z,66.00
2023-01-22T04:18:54.413Z,66.10
2023-01-22T04:21:21.397Z,66.10
2023-01-22T04:23:48.322Z,66.20
2023-01-22T04:26:15.248Z,66.10
2023-01-22T04:28:42.262Z,66.10
2023-01-22T04:31:10.240Z,66.00
2023-01-22T04:33:37.516Z,66.10
2023-01-22T04:36:04.683Z,66.00
2023-01-22T04:38:31.751Z,66.10
2023-01-22T04:40:58.772Z,66.20
2023-01-22T04:43:28.280Z,66.20
2023-01-22T04:45:55.272Z,66.30
2023-01-22T04:48:22.243Z,66.20
2023-01-22T04:50:49.292Z,66.20
2023-01-22T04:53:16.358Z,66.20
2023-01-22T04:55:43.646Z,66.20
2023-01-22T04:58:10.706Z,66.30
2023-01-22T05:00:37.845Z,66.20
2023-01-22T05:03:05.392Z,66.20
2023-01-22T05:05:33.420Z,66.20
2023-01-22T05:08:01.018Z,66.40
2023-01-22T05:10:31.149Z,66.40
2023-01-22T05:12:58.188Z,66.30
2023-01-22T05:15:25.476Z,66.40
2023-01-22T05:17:53.445Z,66.30
2023-01-22T05:20:21.253Z,66.20
2023-01-22T05:22:48.904Z,66.40
2023-01-22T05:25:15.971Z,66.20
2023-01-22T05:27:43.454Z,66.20
2023-01-22T05:30:12.512Z,66.30
2023-01-22T05:32:39.603Z,66.10
2023-01-22T05:35:06.893Z,66.00
2023-01-22T05:37:33.832Z,66.00
2023-01-22T05:40:00.857Z,65.90
2023-01-22T05:42:27.765Z,65.90
2023-01-22T05:44:54.683Z,65.80
2023-01-22T05:47:21.675Z,65.80
2023-01-22T05:49:48.738Z,65.80
2023-01-22T05:52:15.736Z,65.90
2023-01-22T05:54:42.736Z,65.70
2023-01-22T05:57:09.762Z,65.70
2023-01-22T05:59:36.731Z,65.70
2023-01-22T06:02:03.766Z,65.60
2023-01-22T06:04:30.834Z,65.50
2023-01-22T06:06:57.796Z,65.60
2023-01-22T06:09:25.363Z,65.80
2023-01-22T06:11:52.440Z,65.70
2023-01-22T06:14:19.591Z,65.60
2023-01-22T06:16:46.740Z,65.70
2023-01-22T06:19:13.707Z,65.70
2023-01-22T06:21:41.180Z,65.50
2023-01-22T06:24:08.403Z,65.40
2023-01-22T06:26:35.468Z,65.30
2023-01-22T06:29:02.624Z,65.30
2023-01-22T06:31:31.121Z,65.20
2023-01-22T06:33:58.386Z,65.20
2023-01-22T06:36:25.378Z,65.00
2023-01-22T06:38:52.268Z,65.00
2023-01-22T06:41:19.203Z,65.00
2023-01-22T06:43:46.124Z,64.90
2023-01-22T06:46:13.090Z,65.00
2023-01-22T06:48:40.045Z,64.80
2023-01-22T06:51:07.024Z,64.70
2023-01-22T06:53:33.985Z,64.80
2023-01-22T06:56:01.350Z,64.80
2023-01-22T06:58:28.924Z,64.70
2023-01-22T07:00:59.490Z,64.60
2023-01-22T07:03:26.575Z,64.70
2023-01-22T07:06:02.543Z,64.60
2023-01-22T07:08:31.768Z,64.70
2023-01-22T07:10:59.547Z,64.70
2023-01-22T07:13:26.472Z,64.60
2023-01-22T07:15:53.566Z,64.50
2023-01-22T07:18:23.815Z,64.50
2023-01-22T07:20:50.950Z,64.50
2023-01-22T07:23:18.150Z,64.30
2023-01-22T07:25:45.994Z,64.30
2023-01-22T07:28:17.291Z,64.30
2023-01-22T07:30:46.999Z,64.30
2023-01-22T07:33:15.083Z,64.20
2023-01-22T07:35:42.370Z,64.10
2023-01-22T07:38:09.416Z,64.00
2023-01-22T07:40:36.419Z,64.00
2023-01-22T07:43:07.603Z,64.00
2023-01-22T07:45:35.635Z,64.00
2023-01-22T07:48:04.094Z,63.90
2023-01-22T07:50:31.938Z,63.90
2023-01-22T07:53:00.702Z,63.80
2023-01-22T07:55:27.814Z,63.90
2023-01-22T07:58:03.768Z,63.70
2023-01-22T08:00:31.833Z,64.00
2023-01-22T08:02:58.827Z,63.90
2023-01-22T08:05:25.849Z,63.80
2023-01-22T08:07:53.056Z,63.80
2023-01-22T08:10:20.421Z,63.90
2023-01-22T08:12:47.591Z,63.70
2023-01-22T08:15:15.085Z,63.90
2023-01-22T08:17:42.399Z,63.70
2023-01-22T08:20:10.538Z,63.70
2023-01-22T08:22:37.767Z,63.70
2023-01-22T08:25:05.139Z,63.60
2023-01-22T08:27:35.114Z,63.70
2023-01-22T08:30:03.084Z,63.60
2023-01-22T08:32:30.377Z,63.60
2023-01-22T08:34:57.626Z,63.70
2023-01-22T08:37:25.355Z,63.70
2023-01-22T08:39:52.373Z,63.50
2023-01-22T08:42:19.441Z,63.70
2023-01-22T08:44:46.417Z,63.60
2023-01-22T08:47:13.564Z,63.40
2023-01-22T08:49:40.572Z,63.40
2023-01-22T08:52:07.657Z,63.50
2023-01-22T08:54:34.775Z,63.60
2023-01-22T08:57:01.774Z,63.50
2023-01-22T08:59:30.881Z,63.50
2023-01-22T09:01:59.818Z,63.50
2023-01-22T09:04:27.976Z,63.60
2023-01-22T09:06:55.225Z,63.50
2023-01-22T09:09:22.879Z,63.50
2023-01-22T09:11:49.892Z,63.50
2023-01-22T09:14:16.880Z,63.50
2023-01-22T09:16:43.846Z,63.50
2023-01-22T09:19:11.730Z,63.60
2023-01-22T09:21:38.770Z,63.60
2023-01-22T09:24:07.163Z,63.60
2023-01-22T09:26:34.857Z,63.60
2023-01-22T09:29:04.243Z,63.60
2023-01-22T09:31:31.999Z,63.50
2023-01-22T09:33:59.682Z,63.60
2023-01-22T09:36:26.639Z,63.50
2023-01-22T09:38:53.857Z,63.50
2023-01-22T09:41:24.952Z,63.50
2023-01-22T09:44:06.127Z,63.60
2023-01-22T09:46:57.259Z,63.60
2023-01-22T09:49:33.565Z,63.60
2023-01-22T09:52:04.268Z,63.60
2023-01-22T09:54:33.750Z,63.60
2023-01-22T09:57:05.086Z,63.70
2023-01-22T09:59:53.036Z,63.60
2023-01-22T10:02:38.972Z,63.60
2023-01-22T10:05:44.142Z,63.70
2023-01-22T10:08:21.807Z,63.80
2023-01-22T10:10:54.765Z,63.90
2023-01-22T10:13:29.207Z,63.90
2023-01-22T10:15:59.683Z,63.90
2023-01-22T10:18:50.594Z,63.90
2023-01-22T10:21:37.420Z,64.00
2023-01-22T10:24:04.443Z,64.00
2023-01-22T10:26:54.363Z,63.80
2023-01-22T10:29:37.287Z,63.90
2023-01-22T10:32:15.961Z,63.90
2023-01-22T10:34:43.027Z,63.80
2023-01-22T10:37:16.006Z,63.90
2023-01-22T10:39:47.578Z,64.00
2023-01-22T10:42:19.455Z,63.90
2023-01-22T10:44:47.041Z,64.00
2023-01-22T10:47:20.917Z,63.80
2023-01-22T10:50:04.459Z,64.30
2023-01-22T10:52:45.096Z,64.20
2023-01-22T10:55:29.551Z,64.20
2023-01-22T10:58:03.536Z,64.00
2023-01-22T11:00:51.496Z,64.20
2023-01-22T11:03:45.794Z,64.10
2023-01-22T11:06:18.343Z,63.90
2023-01-22T11:09:01.553Z,64.00
2023-01-22T11:11:37.936Z,64.00
2023-01-22T11:14:11.985Z,64.20
2023-01-22T11:16:41.034Z,64.30
2023-01-22T11:19:21.688Z,64.30
2023-01-22T11:21:57.608Z,64.30
2023-01-22T11:24:38.925Z,64.30
2023-01-22T11:27:24.387Z,64.40
2023-01-22T11:30:11.885Z,64.50
2023-01-22T11:32:44.902Z,64.40
2023-01-22T11:35:19.313Z,64.40
2023-01-22T11:37:49.530Z,64.30
2023-01-22T11:40:33.475Z,64.30
2023-01-22T11:43:19.740Z,64.40
2023-01-22T11:46:16.260Z,64.40
2023-01-22T11:49:12.394Z,64.40
2023-01-22T11:52:09.985Z,64.40
2023-01-22T11:54:56.218Z,64.50
2023-01-22T11:57:26.535Z,64.50
2023-01-22T12:00:22.438Z,64.50
2023-01-22T12:03:12.029Z,64.50
2023-01-22T12:05:58.573Z,64.50
2023-01-22T12:08:45.981Z,64.50
2023-01-22T12:11:21.958Z,65.10
2023-01-22T12:14:52.308Z,64.60
2023-01-22T12:17:37.130Z,64.50
2023-01-22T12:20:35.793Z,64.60
2023-01-22T12:23:11.692Z,64.60
2023-01-22T12:26:00.743Z,64.60
2023-01-22T12:28:44.925Z,65.30
2023-01-22T12:31:26.143Z,64.60
2023-01-22T12:33:53.130Z,64.60
2023-01-22T12:36:25.685Z,64.50
2023-01-22T12:39:14.561Z,64.60
2023-01-22T12:42:18.573Z,64.60
2023-01-22T12:45:14.299Z,64.80
2023-01-22T12:48:07.084Z,64.60
2023-01-22T12:50:37.844Z,64.80
2023-01-22T12:53:21.361Z,64.70
2023-01-22T12:56:08.607Z,64.90
2023-01-22T12:58:40.623Z,64.80
2023-01-22T13:01:11.355Z,64.80
2023-01-22T13:03:42.563Z,65.00
2023-01-22T13:06:37.122Z,64.90
2023-01-22T13:09:26.292Z,65.10
2023-01-22T13:11:53.356Z,65.10
2023-01-22T13:14:25.279Z,64.90
2023-01-22T13:17:00.781Z,64.90
2023-01-22T13:19:31.682Z,64.90
2023-01-22T13:22:00.845Z,64.90
2023-01-22T13:24:27.841Z,64.90
2023-01-22T13:27:00.488Z,64.90
2023-01-22T13:29:34.111Z,65.00
2023-01-22T13:32:15.266Z,64.90
2023-01-22T13:34:42.366Z,65.00
2023-01-22T13:37:25.041Z,65.00
2023-01-22T13:39:52.069Z,65.00
2023-01-22T13:42:19.313Z,64.90
2023-01-22T13:44:51.672Z,64.90
2023-01-22T13:47:35.207Z,64.90
2023-01-22T13:50:02.874Z,65.00
2023-01-22T13:52:31.611Z,65.00
2023-01-22T13:55:06.382Z,64.90
2023-01-22T13:57:33.770Z,65.10
2023-01-22T14:00:02.778Z,64.90
2023-01-22T14:02:35.098Z,65.10
2023-01-22T14:05:02.635Z,65.10
2023-01-22T14:07:33.649Z,65.10
2023-01-22T14:10:25.467Z,65.10
2023-01-22T14:13:03.703Z,65.20
2023-01-22T14:15:31.348Z,65.20
2023-01-22T14:18:16.349Z,65.30
2023-01-22T14:20:45.652Z,65.20
2023-01-22T14:23:13.716Z,65.20
2023-01-22T14:25:48.816Z,65.20
2023-01-22T14:28:17.389Z,65.40
2023-01-22T14:30:45.278Z,65.50
2023-01-22T14:33:21.937Z,65.60
2023-01-22T14:35:50.332Z,65.60
2023-01-22T14:38:18.887Z,65.60
2023-01-22T14:40:46.413Z,65.70
2023-01-22T14:43:13.580Z,65.90
2023-01-22T14:45:41.378Z,65.90
2023-01-22T14:48:11.585Z,65.90
2023-01-22T14:50:39.887Z,66.00
2023-01-22T14:53:07.837Z,66.00
2023-01-22T14:55:35.087Z,66.10
2023-01-22T14:58:02.246Z,66.20
2023-01-22T15:00:29.766Z,66.10
2023-01-22T15:02:58.433Z,66.20
2023-01-22T15:05:26.558Z,66.30
2023-01-22T15:07:54.030Z,66.30
2023-01-22T15:10:21.170Z,66.30
2023-01-22T15:12:52.803Z,66.30
2023-01-22T15:15:26.421Z,66.60
2023-01-22T15:17:57.186Z,66.50
2023-01-22T15:20:25.137Z,66.60
2023-01-22T15:22:52.556Z,66.50
2023-01-22T15:25:19.889Z,66.60
2023-01-22T15:27:47.190Z,66.70
2023-01-22T15:30:15.048Z,66.70
2023-01-22T15:32:42.210Z,66.80
2023-01-22T15:35:09.908Z,66.80
2023-01-22T15:37:37.266Z,67.00
2023-01-22T15:40:05.044Z,66.90
2023-01-22T15:42:35.629Z,67.00
2023-01-22T15:45:04.215Z,67.00
2023-01-22T15:47:31.206Z,67.00
2023-01-22T15:49:58.291Z,67.00
2023-01-22T15:52:25.313Z,67.00
2023-01-22T15:54:53.828Z,67.00
2023-01-22T15:57:21.109Z,67.10
2023-01-22T15:59:48.212Z,67.00
2023-01-22T16:02:15.217Z,67.00
2023-01-22T16:04:43.336Z,67.10
2023-01-22T16:07:10.499Z,67.20
2023-01-22T16:09:38.874Z,67.20
2023-01-22T16:12:06.695Z,67.20
2023-01-22T16:14:34.232Z,67.20
2023-01-22T16:17:02.248Z,67.10
2023-01-22T16:19:29.228Z,67.10
2023-01-22T16:21:56.183Z,67.10
2023-01-22T16:24:23.100Z,67.00
2023-01-22T16:26:50.507Z,67.00
2023-01-22T16:29:17.591Z,67.00
2023-01-22T16:31:44.643Z,67.00
2023-01-22T16:34:18.410Z,67.10
2023-01-22T16:36:45.739Z,67.10
2023-01-22T16:39:21.868Z,67.00
2023-01-22T16:41:50.498Z,67.20
2023-01-22T16:44:27.262Z,67.00
2023-01-22T16:46:57.750Z,67.00
2023-01-22T16:49:34.680Z,67.10
2023-01-22T16:52:20.805Z,67.00
2023-01-22T16:54:49.488Z,67.00
2023-01-22T16:57:16.750Z,66.80
2023-01-22T16:59:44.055Z,66.80
2023-01-22T17:02:14.843Z,66.90
2023-01-22T17:04:42.186Z,67.00
2023-01-22T17:07:15.383Z,66.80
2023-01-22T17:09:47.685Z,66.90
2023-01-22T17:12:15.097Z,66.80
2023-01-22T17:14:42.348Z,67.00
2023-01-22T17:17:10.576Z,67.00
2023-01-22T17:19:37.647Z,67.00
2023-01-22T17:22:08.484Z,66.90
2023-01-22T17:24:36.554Z,67.00
2023-01-22T17:27:04.002Z,67.10
2023-01-22T17:29:32.114Z,67.00
2023-01-22T17:31:59.322Z,67.00
2023-01-22T17:34:26.399Z,67.00
2023-01-22T17:36:53.432Z,67.00
2023-01-22T17:39:21.239Z,67.00
2023-01-22T17:41:48.305Z,67.00
2023-01-22T17:44:15.319Z,67.10
2023-01-22T17:46:42.384Z,66.90
2023-01-22T17:49:11.256Z,67.00
2023-01-22T17:51:38.442Z,67.00
2023-01-22T17:54:06.312Z,67.10
2023-01-22T17:56:40.251Z,67.20
2023-01-22T17:59:07.720Z,67.20
2023-01-22T18:01:36.751Z,67.20
2023-01-22T18:04:07.280Z,67.20
2023-01-22T18:06:34.882Z,67.20
2023-01-22T18:09:02.927Z,67.20
2023-01-22T18:11:30.525Z,67.20
2023-01-22T18:13:59.558Z,67.20
2023-01-22T18:16:29.671Z,67.30
2023-01-22T18:18:58.986Z,67.30
2023-01-22T18:21:26.210Z,67.20
2023-01-22T18:23:53.733Z,67.10
2023-01-22T18:26:23.230Z,67.10
2023-01-22T18:28:51.710Z,67.20
2023-01-22T18:31:24.713Z,67.20
2023-01-22T18:33:53.382Z,66.60
2023-01-22T18:36:23.010Z,67.20
2023-01-22T18:38:50.303Z,67.20
2023-01-22T18:41:25.472Z,67.10
2023-01-22T18:43:57.751Z,67.20
2023-01-22T18:46:28.045Z,67.20
2023-01-22T18:49:04.314Z,67.20
2023-01-22T18:51:33.092Z,67.30
2023-01-22T18:54:02.300Z,67.20
2023-01-22T18:56:29.283Z,67.20
2023-01-22T18:58:56.862Z,67.10
2023-01-22T19:01:26.898Z,67.30
2023-01-22T19:04:00.013Z,67.30
2023-01-22T19:06:29.307Z,67.30
2023-01-22T19:09:00.641Z,67.30
2023-01-22T19:11:27.767Z,67.30
2023-01-22T19:13:56.482Z,67.10
2023-01-22T19:16:24.453Z,67.30
2023-01-22T19:19:11.275Z,67.30
2023-01-22T19:21:40.399Z,67.30
2023-01-22T19:24:08.831Z,67.30
2023-01-22T19:26:37.588Z,67.30
2023-01-22T19:29:11.141Z,67.20
2023-01-22T19:31:46.040Z,67.30
2023-01-22T19:34:16.378Z,67.20
2023-01-22T19:36:43.551Z,67.30
2023-01-22T19:39:12.927Z,67.30
2023-01-22T19:41:40.802Z,67.40
2023-01-22T19:44:09.225Z,67.40
2023-01-22T19:46:38.071Z,67.40
2023-01-22T19:49:05.943Z,67.50
2023-01-22T19:51:33.998Z,67.40
2023-01-22T19:54:02.482Z,67.40
2023-01-22T19:56:33.647Z,67.40
2023-01-22T19:59:11.482Z,67.40
2023-01-22T20:01:39.384Z,67.40
2023-01-22T20:04:13.924Z,67.50
2023-01-22T20:06:41.068Z,67.30
2023-01-22T20:09:10.495Z,67.30
2023-01-22T20:11:37.547Z,67.20
2023-01-22T20:14:04.601Z,67.20
2023-01-22T20:16:31.585Z,67.20
2023-01-22T20:18:58.795Z,67.30
2023-01-22T20:21:27.040Z,67.30
2023-01-22T20:23:54.511Z,67.50
2023-01-22T20:26:23.183Z,67.50
2023-01-22T20:28:50.694Z,67.50
2023-01-22T20:31:20.256Z,67.30
2023-01-22T20:33:47.427Z,67.60
2023-01-22T20:36:17.642Z,67.50
2023-01-22T20:38:45.989Z,67.60
2023-01-22T20:41:13.952Z,67.60
2023-01-22T20:43:42.535Z,67.70
2023-01-22T20:46:18.733Z,67.70
2023-01-22T20:48:46.370Z,67.70
2023-01-22T20:51:18.513Z,67.70
2023-01-22T20:53:47.492Z,67.70
2023-01-22T20:56:17.331Z,67.60
2023-01-22T20:58:44.571Z,67.50
2023-01-22T21:01:16.758Z,67.30
2023-01-22T21:03:44.987Z,67.50
2023-01-22T21:06:15.004Z,67.50
2023-01-22T21:08:43.016Z,67.60
2023-01-22T21:11:12.379Z,67.70
2023-01-22T21:13:40.397Z,67.80
2023-01-22T21:16:10.089Z,67.80
2023-01-22T21:18:41.446Z,67.70
2023-01-22T21:21:10.289Z,67.70
2023-01-22T21:23:40.723Z,67.70
2023-01-22T21:26:11.354Z,67.70
2023-01-22T21:28:39.796Z,67.70
2023-01-22T21:31:12.533Z,67.60
2023-01-22T21:33:40.105Z,67.60
2023-01-22T21:36:08.892Z,67.70
2023-01-22T21:38:37.096Z,67.70
2023-01-22T21:41:12.511Z,67.70
2023-01-22T21:44:00.474Z,67.80
2023-01-22T21:46:29.874Z,67.70
2023-01-22T21:48:59.012Z,68.50
2023-01-22T21:51:26.856Z,67.70
2023-01-22T21:53:58.306Z,67.80
2023-01-22T21:56:26.704Z,67.90
2023-01-22T21:58:55.651Z,67.90
2023-01-22T22:01:22.995Z,67.90
2023-01-22T22:03:49.939Z,67.80
2023-01-22T22:06:16.897Z,67.80
2023-01-22T22:08:44.464Z,67.80
2023-01-22T22:11:13.444Z,67.90
2023-01-22T22:13:40.637Z,67.90
2023-01-22T22:16:09.124Z,67.70
2023-01-22T22:18:36.339Z,67.70
2023-01-22T22:21:05.856Z,67.70
2023-01-22T22:23:34.019Z,67.60
2023-01-22T22:26:01.470Z,67.60
2023-01-22T22:28:29.561Z,67.60
2023-01-22T22:31:11.894Z,67.60
2023-01-22T22:33:44.131Z,67.60
2023-01-22T22:36:12.214Z,67.60
2023-01-22T22:38:39.463Z,67.70
2023-01-22T22:41:15.379Z,67.70
2023-01-22T22:43:44.570Z,67.60
2023-01-22T22:46:38.623Z,67.60
2023-01-22T22:49:06.728Z,67.50
2023-01-22T22:51:39.524Z,67.60
2023-01-22T22:54:18.237Z,67.60
2023-01-22T22:56:47.098Z,67.60
2023-01-22T22:59:15.464Z,67.60
2023-01-22T23:01:42.514Z,67.70
2023-01-22T23:04:10.976Z,67.50
2023-01-22T23:06:38.168Z,67.70
2023-01-22T23:09:06.700Z,67.60
2023-01-22T23:11:36.312Z,67.40
2023-01-22T23:14:04.115Z,67.50
2023-01-22T23:16:34.328Z,67.50
2023-01-22T23:19:04.255Z,67.50
2023-01-22T23:21:31.358Z,67.50
2023-01-22T23:23:58.303Z,67.40
2023-01-22T23:26:30.706Z,67.50
2023-01-22T23:29:02.147Z,67.60
2023-01-22T23:31:31.870Z,67.60
2023-01-22T23:34:00.657Z,67.60
2023-01-22T23:36:27.630Z,67.60
2023-01-22T23:38:55.191Z,67.50
2023-01-22T23:41:23.027Z,67.50
2023-01-22T23:43:51.014Z,67.50
2023-01-22T23:46:24.651Z,67.50
2023-01-22T23:48:53.002Z,67.60
2023-01-22T23:51:20.669Z,67.60
2023-01-22T23:53:51.786Z,67.60
2023-01-22T23:56:21.575Z,67.70
2023-01-22T23:58:48.737Z,67.60
